Time;durP1;ratioP1;P1;durP2;ratioP2;P2;SDS_P1;SDS_P2;PMS_P1;PMS_P2;Temp;Humidity;BMP_temperature;BMP_pressure;BME280_temperature;BME280_humidity;BME280_pressure;Samples;Min_cycle;Max_cycle;Signal;HPM_P1;HPM_P2
2021/03/16 00:00:31;;;;;;;11.02;4.65;;;3.80;99.90;;;;;;4985861;28;20043;-70
2021/03/16 00:02:57;;;;;;;13.80;4.40;;;3.80;99.90;;;;;;4988126;28;20058;-68
2021/03/16 00:05:24;;;;;;;12.23;5.05;;;3.80;99.90;;;;;;4983527;28;20052;-67
2021/03/16 00:07:50;;;;;;;12.48;4.65;;;3.80;99.90;;;;;;4981336;28;20102;-68
2021/03/16 00:10:17;;;;;;;11.20;4.95;;;3.80;99.90;;;;;;4980107;28;20054;-67
2021/03/16 00:12:43;;;;;;;15.70;6.47;;;3.80;99.90;;;;;;4983201;28;20042;-68
2021/03/16 00:15:11;;;;;;;12.35;5.53;;;3.80;99.90;;;;;;4986800;28;20054;-68
2021/03/16 00:17:37;;;;;;;13.65;5.72;;;3.80;99.90;;;;;;4983394;28;20090;-68
2021/03/16 00:20:05;;;;;;;14.40;5.65;;;3.80;99.90;;;;;;4979142;28;20082;-68
2021/03/16 00:22:32;;;;;;;14.10;6.07;;;3.70;99.90;;;;;;4994056;28;20092;-68
2021/03/16 00:25:13;;;;;;;15.10;6.40;;;3.70;99.90;;;;;;4993237;28;20132;-68
2021/03/16 00:27:40;;;;;;;17.88;6.28;;;3.70;99.90;;;;;;4994388;28;20050;-68
2021/03/16 00:30:10;;;;;;;12.32;5.60;;;3.70;99.90;;;;;;4993592;28;20093;-69
2021/03/16 00:32:37;;;;;;;16.75;6.63;;;3.70;99.90;;;;;;4993003;28;20046;-69
2021/03/16 00:35:05;;;;;;;21.00;8.23;;;3.80;99.90;;;;;;4993341;28;20065;-68
2021/03/16 00:37:31;;;;;;;16.35;6.15;;;3.80;99.90;;;;;;4992966;28;20066;-68
2021/03/16 00:39:58;;;;;;;12.55;6.20;;;3.80;99.90;;;;;;4992247;28;20065;-69
2021/03/16 00:42:24;;;;;;;10.27;5.38;;;3.80;99.90;;;;;;4994065;28;20058;-68
2021/03/16 00:44:51;;;;;;;11.63;5.13;;;3.90;99.90;;;;;;4993594;28;20050;-68
2021/03/16 00:47:17;;;;;;;12.98;5.90;;;3.90;99.90;;;;;;4993738;28;20050;-68
2021/03/16 00:49:44;;;;;;;14.00;5.97;;;3.90;99.90;;;;;;4993013;28;20062;-67
2021/03/16 00:52:11;;;;;;;12.45;5.57;;;3.90;99.90;;;;;;4992706;28;20057;-68
2021/03/16 00:54:38;;;;;;;15.98;5.78;;;3.90;99.90;;;;;;4991737;28;20047;-68
2021/03/16 00:57:04;;;;;;;14.43;6.50;;;3.90;99.90;;;;;;4993079;28;20421;-68
2021/03/16 00:59:31;;;;;;;18.08;6.95;;;3.90;99.90;;;;;;4992350;28;20056;-68
2021/03/16 01:01:57;;;;;;;16.40;6.20;;;3.90;99.90;;;;;;4993049;28;20477;-69
2021/03/16 01:04:25;;;;;;;11.63;6.53;;;3.90;99.90;;;;;;4989295;28;20081;-69
2021/03/16 01:06:51;;;;;;;13.25;6.68;;;3.90;99.90;;;;;;4990454;28;20501;-68
2021/03/16 01:09:18;;;;;;;13.90;6.18;;;3.90;99.90;;;;;;4984271;28;20576;-68
2021/03/16 01:11:44;;;;;;;13.93;5.93;;;3.90;99.90;;;;;;4982941;28;20481;-68
2021/03/16 01:14:11;;;;;;;10.00;6.10;;;3.90;99.90;;;;;;4986346;28;20524;-68
2021/03/16 01:16:38;;;;;;;12.57;6.53;;;3.90;99.90;;;;;;4988592;28;20416;-68
2021/03/16 01:19:05;;;;;;;16.40;5.97;;;3.90;99.90;;;;;;4988451;28;20039;-69
2021/03/16 01:21:31;;;;;;;20.33;7.72;;;3.90;99.90;;;;;;4984222;28;20053;-69
2021/03/16 01:23:58;;;;;;;11.13;5.88;;;3.90;99.90;;;;;;4991535;28;20153;-68
2021/03/16 01:26:24;;;;;;;18.90;5.93;;;3.90;99.90;;;;;;4983778;28;20054;-68
2021/03/16 01:28:51;;;;;;;14.52;6.32;;;3.90;99.90;;;;;;4989966;28;20070;-68
2021/03/16 01:31:17;;;;;;;12.35;4.93;;;3.80;99.90;;;;;;4991752;28;20049;-68
2021/03/16 01:33:44;;;;;;;10.93;5.22;;;3.80;99.90;;;;;;4990623;28;20043;-68
2021/03/16 01:36:11;;;;;;;18.77;4.85;;;3.80;99.90;;;;;;4992057;28;20050;-68
2021/03/16 01:38:38;;;;;;;12.25;4.38;;;3.80;99.90;;;;;;4991349;28;20054;-68
2021/03/16 01:41:04;;;;;;;14.23;4.95;;;3.80;99.90;;;;;;4992323;28;20042;-68
2021/03/16 01:43:33;;;;;;;11.43;4.85;;;3.80;99.90;;;;;;4990902;28;20532;-68
2021/03/16 01:45:59;;;;;;;11.48;4.22;;;3.80;99.90;;;;;;5002157;28;20060;-68
2021/03/16 01:48:32;;;;;;;11.52;4.25;;;3.90;99.90;;;;;;5001364;28;20077;-68
2021/03/16 01:51:08;;;;;;;14.35;4.60;;;3.90;99.90;;;;;;4996717;28;20053;-67
2021/03/16 01:53:35;;;;;;;10.98;4.25;;;3.90;99.90;;;;;;4997880;28;20050;-68
2021/03/16 01:56:13;;;;;;;13.02;4.18;;;3.90;99.90;;;;;;4996570;28;20058;-68
2021/03/16 01:58:42;;;;;;;11.88;4.80;;;3.90;99.90;;;;;;4995152;28;20366;-68
2021/03/16 02:01:09;;;;;;;14.10;5.10;;;3.90;99.90;;;;;;4991452;28;20501;-67
2021/03/16 02:03:35;;;;;;;14.13;4.43;;;3.90;99.90;;;;;;4991042;28;20061;-67
2021/03/16 02:06:07;;;;;;;13.80;4.45;;;3.90;99.90;;;;;;4994301;28;20093;-67
2021/03/16 02:08:45;;;;;;;13.85;4.15;;;3.80;99.90;;;;;;4989802;28;20051;-67
2021/03/16 02:11:35;;;;;;;11.90;3.75;;;3.80;99.90;;;;;;4990479;28;20141;-67
2021/03/16 02:14:24;;;;;;;10.88;3.15;;;3.70;99.90;;;;;;4992141;28;20045;-67
2021/03/16 02:17:05;;;;;;;7.55;2.75;;;3.60;99.90;;;;;;5005385;28;20042;-68
2021/03/16 02:19:44;;;;;;;6.20;2.90;;;3.50;99.90;;;;;;4991086;28;20070;-67
2021/03/16 02:22:11;;;;;;;10.50;3.10;;;3.50;99.90;;;;;;4987903;28;20057;-68
2021/03/16 02:24:54;;;;;;;14.95;3.92;;;3.40;99.90;;;;;;4990019;28;20481;-67
2021/03/16 02:27:27;;;;;;;12.80;3.22;;;3.40;99.90;;;;;;4982018;28;20042;-68
2021/03/16 02:29:59;;;;;;;16.27;4.55;;;3.40;99.90;;;;;;5002251;28;20049;-68
2021/03/16 02:32:28;;;;;;;13.30;4.00;;;3.40;99.90;;;;;;4989622;28;20057;-68
2021/03/16 02:34:59;;;;;;;11.27;3.90;;;3.50;99.90;;;;;;4990641;28;20086;-67
2021/03/16 02:37:28;;;;;;;10.73;3.78;;;3.60;99.90;;;;;;5006184;28;20049;-67
2021/03/16 02:39:55;;;;;;;11.00;3.75;;;3.50;99.90;;;;;;4983207;28;20046;-67
2021/03/16 02:42:24;;;;;;;13.52;4.00;;;3.60;99.90;;;;;;4989943;28;20050;-67
2021/03/16 02:44:52;;;;;;;9.48;3.70;;;3.60;99.90;;;;;;4998229;28;20052;-67
2021/03/16 02:47:20;;;;;;;13.40;4.85;;;3.60;99.90;;;;;;5000865;28;20144;-68
2021/03/16 02:49:48;;;;;;;11.10;3.85;;;3.50;99.90;;;;;;5000454;28;20057;-69
2021/03/16 02:52:16;;;;;;;14.60;4.35;;;3.50;99.90;;;;;;4994773;28;20507;-69
2021/03/16 02:54:46;;;;;;;11.60;4.10;;;3.50;99.90;;;;;;4997522;28;20062;-68
2021/03/16 02:57:15;;;;;;;12.48;4.75;;;3.50;99.90;;;;;;5002083;28;20054;-69
2021/03/16 02:59:43;;;;;;;10.85;4.78;;;3.60;99.90;;;;;;5006626;28;20404;-68
2021/03/16 03:02:13;;;;;;;13.52;4.10;;;3.60;99.90;;;;;;4992909;28;20437;-68
2021/03/16 03:04:45;;;;;;;12.30;5.28;;;3.50;99.90;;;;;;4993035;28;20565;-68
2021/03/16 03:07:14;;;;;;;13.93;4.80;;;3.60;99.90;;;;;;4998586;28;20487;-68
2021/03/16 03:09:40;;;;;;;10.02;4.82;;;3.60;99.90;;;;;;4999183;28;20058;-68
2021/03/16 03:12:08;;;;;;;12.90;5.07;;;3.60;99.90;;;;;;4993711;28;20500;-68
2021/03/16 03:14:37;;;;;;;13.00;5.45;;;3.60;99.90;;;;;;4987804;28;20042;-68
2021/03/16 03:17:07;;;;;;;12.65;4.75;;;3.60;99.90;;;;;;5002683;28;20101;-68
2021/03/16 03:19:36;;;;;;;11.82;5.50;;;3.60;99.90;;;;;;4994967;28;20050;-68
2021/03/16 03:22:20;;;;;;;16.42;6.32;;;3.60;99.90;;;;;;4993553;28;20054;-68
2021/03/16 03:24:54;;;;;;;15.75;6.55;;;3.50;99.90;;;;;;4997026;28;20404;-68
2021/03/16 03:27:38;;;;;;;15.27;6.10;;;3.50;99.90;;;;;;4994934;28;20112;-68
2021/03/16 03:30:06;;;;;;;11.60;6.18;;;3.60;99.90;;;;;;4994804;28;20057;-68
2021/03/16 03:32:34;;;;;;;15.15;6.60;;;3.50;99.90;;;;;;4996184;28;20065;-68
2021/03/16 03:35:02;;;;;;;16.88;7.15;;;3.50;99.90;;;;;;5003680;28;20054;-68
2021/03/16 03:37:31;;;;;;;13.77;5.88;;;3.50;99.90;;;;;;5001509;28;20420;-68
2021/03/16 03:39:58;;;;;;;15.60;5.85;;;3.50;99.90;;;;;;4993099;28;20053;-68
2021/03/16 03:42:26;;;;;;;17.58;5.95;;;3.50;99.90;;;;;;4993283;28;20046;-67
2021/03/16 03:44:56;;;;;;;11.23;5.65;;;3.50;99.90;;;;;;4994484;28;20047;-69
2021/03/16 03:47:24;;;;;;;14.52;6.10;;;3.50;99.90;;;;;;4994150;28;20508;-68
2021/03/16 03:49:52;;;;;;;17.58;6.75;;;3.50;99.90;;;;;;4992526;28;20046;-68
2021/03/16 03:52:20;;;;;;;17.60;6.55;;;3.40;99.90;;;;;;4994036;28;20057;-68
2021/03/16 03:54:47;;;;;;;12.85;6.25;;;3.40;99.90;;;;;;4992259;28;20042;-68
2021/03/16 03:57:15;;;;;;;13.55;5.50;;;3.50;99.90;;;;;;4994387;28;20050;-68
2021/03/16 03:59:44;;;;;;;13.93;6.45;;;3.40;99.90;;;;;;4994314;28;20261;-68
2021/03/16 04:02:12;;;;;;;15.48;5.72;;;3.40;99.90;;;;;;4994779;28;20481;-68
2021/03/16 04:04:39;;;;;;;17.13;6.22;;;3.40;99.90;;;;;;5000388;28;20054;-68
2021/03/16 04:07:07;;;;;;;15.73;6.13;;;3.40;99.90;;;;;;4992624;28;20072;-68
2021/03/16 04:09:35;;;;;;;18.33;7.00;;;3.30;99.90;;;;;;5002667;28;20068;-68
2021/03/16 04:12:03;;;;;;;13.70;6.63;;;3.30;99.90;;;;;;4991393;28;20053;-68
2021/03/16 04:14:32;;;;;;;16.67;7.10;;;3.30;99.90;;;;;;4995910;28;20520;-68
2021/03/16 04:16:59;;;;;;;16.30;6.65;;;3.30;99.90;;;;;;4991834;28;20042;-68
2021/03/16 04:19:26;;;;;;;13.93;6.35;;;3.30;99.90;;;;;;4994008;28;20054;-67
2021/03/16 04:21:54;;;;;;;15.55;6.45;;;3.30;99.90;;;;;;4993745;28;20401;-68
2021/03/16 04:24:27;;;;;;;14.95;6.78;;;3.30;99.90;;;;;;5004976;28;20042;-68
2021/03/16 04:26:53;;;;;;;17.63;6.80;;;3.20;99.90;;;;;;4996487;28;20093;-68
2021/03/16 04:29:20;;;;;;;13.77;6.90;;;3.20;99.90;;;;;;4999323;28;20045;-68
2021/03/16 04:31:46;;;;;;;16.45;6.57;;;3.20;99.90;;;;;;4998659;28;20409;-68
2021/03/16 04:34:13;;;;;;;19.98;6.25;;;3.20;99.90;;;;;;4993474;28;20050;-68
2021/03/16 04:36:40;;;;;;;13.63;6.40;;;3.10;99.90;;;;;;5009861;28;20042;-68
2021/03/16 04:39:06;;;;;;;19.00;7.00;;;3.10;99.90;;;;;;4997504;28;20046;-68
2021/03/16 04:41:32;;;;;;;19.27;7.75;;;3.10;99.90;;;;;;4991661;28;20060;-68
2021/03/16 04:43:59;;;;;;;18.13;6.82;;;3.10;99.90;;;;;;4990785;28;20065;-68
2021/03/16 04:46:25;;;;;;;13.23;6.78;;;3.10;99.90;;;;;;4993770;28;20081;-68
2021/03/16 04:48:52;;;;;;;12.50;5.65;;;3.10;99.90;;;;;;4997350;28;20097;-68
2021/03/16 04:51:19;;;;;;;21.98;5.93;;;3.10;99.90;;;;;;4994389;28;20483;-69
2021/03/16 04:53:45;;;;;;;11.05;5.82;;;3.10;99.90;;;;;;4993243;28;20518;-68
2021/03/16 04:56:12;;;;;;;18.25;5.72;;;3.10;99.90;;;;;;4996916;28;20038;-68
2021/03/16 04:58:39;;;;;;;15.65;5.25;;;3.10;99.90;;;;;;4991798;28;20054;-68
2021/03/16 05:01:05;;;;;;;11.68;5.30;;;3.20;99.90;;;;;;4993179;28;20085;-68
2021/03/16 05:03:32;;;;;;;12.65;5.15;;;3.10;99.90;;;;;;4995873;28;20398;-68
2021/03/16 05:05:59;;;;;;;14.23;4.75;;;3.10;99.90;;;;;;4991988;28;20065;-68
2021/03/16 05:08:26;;;;;;;9.95;5.13;;;3.10;99.90;;;;;;4990292;28;20054;-68
2021/03/16 05:10:52;;;;;;;10.68;4.72;;;3.10;99.90;;;;;;4999752;28;20101;-68
2021/03/16 05:13:20;;;;;;;17.10;4.85;;;3.10;99.90;;;;;;4991887;28;20070;-67
2021/03/16 05:15:47;;;;;;;14.25;5.15;;;3.00;99.90;;;;;;4991146;28;20054;-68
2021/03/16 05:18:14;;;;;;;20.33;6.28;;;3.10;99.90;;;;;;4988110;28;20046;-68
2021/03/16 05:20:42;;;;;;;12.77;5.00;;;3.10;99.90;;;;;;4992833;28;20104;-68
2021/03/16 05:23:09;;;;;;;14.90;4.63;;;3.10;99.90;;;;;;4994054;28;20070;-68
2021/03/16 05:25:36;;;;;;;11.45;4.00;;;3.10;99.90;;;;;;4991679;28;20056;-68
2021/03/16 05:28:03;;;;;;;9.27;4.15;;;3.10;99.90;;;;;;4992115;28;20054;-66
2021/03/16 05:30:29;;;;;;;19.40;5.75;;;3.10;99.90;;;;;;4991011;28;20385;-68
2021/03/16 05:33:00;;;;;;;12.65;4.60;;;3.10;99.90;;;;;;4998394;28;20046;-68
2021/03/16 05:35:28;;;;;;;10.52;4.47;;;3.10;99.90;;;;;;4990541;28;20056;-67
2021/03/16 05:37:55;;;;;;;10.27;4.18;;;3.10;99.90;;;;;;4980805;28;20050;-67
2021/03/16 05:40:24;;;;;;;10.13;4.88;;;3.10;99.90;;;;;;4991417;28;20042;-68
2021/03/16 05:42:51;;;;;;;10.75;4.45;;;3.10;99.90;;;;;;4992543;28;20417;-67
2021/03/16 05:45:18;;;;;;;13.10;4.55;;;3.20;99.90;;;;;;4998253;28;20046;-67
2021/03/16 05:47:47;;;;;;;14.55;4.20;;;3.10;99.90;;;;;;4995863;28;20050;-68
2021/03/16 05:50:16;;;;;;;8.45;4.30;;;3.10;99.90;;;;;;4993334;28;20073;-67
2021/03/16 05:52:43;;;;;;;18.17;5.60;;;3.10;99.90;;;;;;4992610;28;20050;-67
2021/03/16 05:55:10;;;;;;;14.63;4.60;;;3.10;99.90;;;;;;4992719;28;20046;-68
2021/03/16 05:57:37;;;;;;;10.10;4.35;;;3.10;99.90;;;;;;4997495;28;20054;-68
2021/03/16 06:00:05;;;;;;;10.73;4.55;;;3.10;99.90;;;;;;4992635;28;20496;-67
2021/03/16 06:02:33;;;;;;;9.85;4.60;;;3.10;99.90;;;;;;4989998;28;20548;-67
2021/03/16 06:05:00;;;;;;;16.83;4.47;;;3.10;99.90;;;;;;4985299;28;20054;-68
2021/03/16 06:07:27;;;;;;;11.65;4.28;;;3.20;99.90;;;;;;4979773;28;20148;-67
2021/03/16 06:09:53;;;;;;;11.55;3.80;;;3.20;99.90;;;;;;4981321;28;20519;-67
2021/03/16 06:12:34;;;;;;;11.40;4.40;;;3.20;99.90;;;;;;4991391;28;20386;-67
2021/03/16 06:15:13;;;;;;;9.10;4.07;;;3.30;99.90;;;;;;4991910;28;20053;-68
2021/03/16 06:17:48;;;;;;;12.35;4.82;;;3.30;99.90;;;;;;4989201;28;20497;-67
2021/03/16 06:20:32;;;;;;;12.15;4.55;;;3.40;99.90;;;;;;4993738;28;20054;-67
2021/03/16 06:23:12;;;;;;;16.25;4.95;;;3.40;99.90;;;;;;5000283;28;20124;-67
2021/03/16 06:25:41;;;;;;;15.70;4.97;;;3.40;99.90;;;;;;4990553;28;20050;-68
2021/03/16 06:28:13;;;;;;;11.20;4.93;;;3.40;99.90;;;;;;4998980;28;20046;-67
2021/03/16 06:30:40;;;;;;;12.55;5.60;;;3.40;99.90;;;;;;4995868;28;20066;-68
2021/03/16 06:33:18;;;;;;;16.30;5.28;;;3.40;99.90;;;;;;5005205;28;20066;-69
2021/03/16 06:36:05;;;;;;;11.60;4.60;;;3.40;99.90;;;;;;4985945;28;20102;-68
2021/03/16 06:38:33;;;;;;;15.48;5.18;;;3.50;99.90;;;;;;4986949;28;20405;-69
2021/03/16 06:41:15;;;;;;;14.02;4.90;;;3.60;99.90;;;;;;4995608;28;20057;-68
2021/03/16 06:43:52;;;;;;;14.80;4.93;;;3.60;99.90;;;;;;4992509;28;20481;-68
2021/03/16 06:46:35;;;;;;;20.27;5.88;;;3.60;99.90;;;;;;4994998;28;20061;-68
2021/03/16 06:49:18;;;;;;;14.05;5.07;;;3.60;99.90;;;;;;4986689;28;20057;-68
2021/03/16 06:51:45;;;;;;;12.07;5.18;;;3.70;99.90;;;;;;4982927;28;20054;-68
2021/03/16 06:54:14;;;;;;;13.73;5.30;;;3.60;99.90;;;;;;4985357;28;20043;-68
2021/03/16 06:56:49;;;;;;;12.48;5.40;;;3.70;99.90;;;;;;4997875;28;20049;-67
2021/03/16 06:59:29;;;;;;;14.25;5.72;;;3.70;99.90;;;;;;4983858;28;20541;-67
2021/03/16 07:01:56;;;;;;;14.80;6.13;;;3.70;99.90;;;;;;4990286;28;20130;-68
2021/03/16 07:04:29;;;;;;;14.80;5.32;;;3.70;99.90;;;;;;4982127;28;20050;-68
2021/03/16 07:06:56;;;;;;;12.70;5.22;;;3.60;99.90;;;;;;4984993;28;20408;-67
2021/03/16 07:09:22;;;;;;;16.90;4.88;;;3.60;99.90;;;;;;4984540;28;20083;-68
2021/03/16 07:11:55;;;;;;;18.58;5.47;;;3.60;99.90;;;;;;4987510;28;20081;-68
2021/03/16 07:14:22;;;;;;;17.13;5.18;;;3.60;99.90;;;;;;4991947;28;20485;-68
2021/03/16 07:16:49;;;;;;;10.68;4.60;;;3.60;99.90;;;;;;4994783;28;20081;-68
2021/03/16 07:19:17;;;;;;;19.63;5.10;;;3.60;99.90;;;;;;4993793;28;20038;-67
2021/03/16 07:21:54;;;;;;;9.50;4.70;;;3.70;99.90;;;;;;4991180;28;20054;-68
2021/03/16 07:24:27;;;;;;;16.08;4.72;;;3.70;99.90;;;;;;4995597;28;20052;-68
2021/03/16 07:26:58;;;;;;;12.38;4.95;;;3.80;99.90;;;;;;4985577;28;20053;-68
2021/03/16 07:29:25;;;;;;;12.20;5.18;;;3.80;99.90;;;;;;4982211;28;20053;-68
2021/03/16 07:32:03;;;;;;;13.75;4.38;;;3.90;99.90;;;;;;4979191;28;20050;-68
2021/03/16 07:34:31;;;;;;;12.75;4.57;;;4.10;99.90;;;;;;4980198;28;20046;-67
2021/03/16 07:37:00;;;;;;;11.73;4.25;;;4.30;99.90;;;;;;4984203;28;20141;-68
2021/03/16 07:39:29;;;;;;;9.65;4.32;;;4.50;99.90;;;;;;4985810;28;20129;-67
2021/03/16 07:41:56;;;;;;;11.05;4.57;;;4.60;99.90;;;;;;4985509;28;20373;-68
2021/03/16 07:44:22;;;;;;;14.57;4.28;;;4.80;99.90;;;;;;4986150;28;20479;-68
2021/03/16 07:47:02;;;;;;;10.57;3.92;;;4.90;99.90;;;;;;4999580;28;20138;-69
2021/03/16 07:49:34;;;;;;;12.18;4.10;;;5.00;99.90;;;;;;4989635;28;20047;-68
2021/03/16 07:52:03;;;;;;;9.38;4.22;;;5.10;99.90;;;;;;4982136;28;20053;-68
2021/03/16 07:54:39;;;;;;;12.57;3.63;;;5.10;99.90;;;;;;4983901;28;20046;-67
2021/03/16 07:57:06;;;;;;;11.23;4.30;;;5.30;99.90;;;;;;4980399;28;20047;-68
2021/03/16 07:59:37;;;;;;;11.35;4.00;;;5.40;99.90;;;;;;4980524;28;20047;-68
2021/03/16 08:02:04;;;;;;;14.07;4.68;;;5.40;99.90;;;;;;5002180;28;20056;-70
2021/03/16 08:04:36;;;;;;;13.30;3.55;;;5.40;99.90;;;;;;4993478;28;20049;-70
2021/03/16 08:07:05;;;;;;;13.10;4.43;;;5.30;99.90;;;;;;4994169;28;20058;-70
2021/03/16 08:09:45;;;;;;;10.35;3.75;;;5.20;99.90;;;;;;4976587;28;20054;-70
2021/03/16 08:12:32;;;;;;;12.50;4.78;;;5.10;99.90;;;;;;4990569;28;20486;-70
2021/03/16 08:15:11;;;;;;;7.80;3.05;;;5.10;99.90;;;;;;4987831;28;20046;-69
2021/03/16 08:17:37;;;;;;;9.93;3.95;;;5.20;99.90;;;;;;4992529;28;20046;-69
2021/03/16 08:20:05;;;;;;;13.25;3.53;;;5.20;99.90;;;;;;4992729;28;20081;-69
2021/03/16 08:22:33;;;;;;;10.25;4.20;;;5.20;99.90;;;;;;4982522;28;20412;-70
2021/03/16 08:25:05;;;;;;;8.70;3.97;;;5.20;99.90;;;;;;4991893;28;20050;-70
2021/03/16 08:27:36;;;;;;;16.33;3.88;;;5.20;99.90;;;;;;4983485;28;20046;-70
2021/03/16 08:30:11;;;;;;;10.40;3.45;;;5.20;99.90;;;;;;4993464;28;20058;-70
2021/03/16 08:32:37;;;;;;;10.77;3.85;;;5.20;99.90;;;;;;4992232;28;20465;-70
2021/03/16 08:35:05;;;;;;;11.88;3.80;;;5.20;99.90;;;;;;4992578;28;20093;-69
2021/03/16 08:37:36;;;;;;;10.77;3.67;;;5.30;99.90;;;;;;5002059;28;20128;-70
2021/03/16 08:40:22;;;;;;;15.95;4.57;;;5.40;99.90;;;;;;4997133;28;20053;-69
2021/03/16 08:42:49;;;;;;;10.10;3.58;;;5.50;99.90;;;;;;4993199;28;20043;-69
2021/03/16 08:45:30;;;;;;;11.88;3.83;;;5.70;99.90;;;;;;4991736;28;20073;-69
2021/03/16 08:47:57;;;;;;;11.35;3.97;;;5.90;99.90;;;;;;4993976;28;20046;-70
2021/03/16 08:50:25;;;;;;;7.18;3.67;;;6.00;99.90;;;;;;4992627;28;20456;-69
2021/03/16 08:52:52;;;;;;;8.85;3.78;;;6.00;99.90;;;;;;4991767;28;20050;-69
2021/03/16 08:55:36;;;;;;;10.68;3.97;;;6.10;99.90;;;;;;4992377;28;20054;-69
2021/03/16 08:58:09;;;;;;;14.88;4.10;;;5.90;99.90;;;;;;5004324;28;20122;-69
2021/03/16 09:00:38;;;;;;;10.23;4.10;;;5.80;99.90;;;;;;4995273;28;20057;-69
2021/03/16 09:03:05;;;;;;;8.75;4.05;;;5.70;99.90;;;;;;4993746;28;20050;-69
2021/03/16 09:05:32;;;;;;;14.40;5.20;;;5.70;99.90;;;;;;4990227;28;20077;-69
2021/03/16 09:07:59;;;;;;;11.15;4.80;;;5.60;99.90;;;;;;4992290;28;20050;-69
2021/03/16 09:10:27;;;;;;;9.13;3.97;;;5.40;99.90;;;;;;4996840;28;20050;-70
2021/03/16 09:12:54;;;;;;;6.85;3.97;;;5.40;99.90;;;;;;4991488;28;20062;-70
2021/03/16 09:15:30;;;;;;;7.82;4.38;;;5.50;99.90;;;;;;4990476;28;20382;-70
2021/03/16 09:18:04;;;;;;;11.30;4.90;;;5.60;99.90;;;;;;4989328;28;20046;-70
2021/03/16 09:20:37;;;;;;;10.27;4.80;;;5.70;99.90;;;;;;4992101;28;20128;-70
2021/03/16 09:23:12;;;;;;;8.52;5.07;;;5.60;99.90;;;;;;4991112;28;20069;-70
2021/03/16 09:25:43;;;;;;;8.48;4.85;;;5.60;99.90;;;;;;4991509;28;20050;-70
2021/03/16 09:28:15;;;;;;;9.95;4.50;;;5.50;99.90;;;;;;4992358;28;20121;-71
2021/03/16 09:30:54;;;;;;;8.93;3.88;;;5.70;99.90;;;;;;5001323;28;20046;-71
2021/03/16 09:33:23;;;;;;;9.20;4.70;;;5.70;99.90;;;;;;4990160;28;20046;-71
2021/03/16 09:36:00;;;;;;;7.88;4.20;;;5.80;99.90;;;;;;4989660;28;20038;-70
2021/03/16 09:38:28;;;;;;;7.05;4.10;;;6.00;99.90;;;;;;4990899;28;20433;-70
2021/03/16 09:40:55;;;;;;;6.70;4.40;;;6.10;99.90;;;;;;4991129;28;20354;-70
2021/03/16 09:43:26;;;;;;;10.32;4.35;;;6.00;99.90;;;;;;4990290;28;20046;-70
2021/03/16 09:45:58;;;;;;;9.18;4.22;;;6.00;99.90;;;;;;4996706;28;20467;-70
2021/03/16 09:48:27;;;;;;;7.70;4.57;;;5.90;99.90;;;;;;4990764;28;20069;-70
2021/03/16 09:50:56;;;;;;;7.00;3.97;;;5.80;99.90;;;;;;4989484;28;20061;-69
2021/03/16 09:53:23;;;;;;;10.65;4.10;;;5.80;99.90;;;;;;4989501;28;20050;-70
2021/03/16 09:56:01;;;;;;;9.65;4.40;;;5.90;99.90;;;;;;4994738;28;20046;-70
2021/03/16 09:58:29;;;;;;;9.35;4.50;;;6.00;99.90;;;;;;4990756;28;20054;-70
2021/03/16 10:00:56;;;;;;;8.18;3.90;;;6.10;99.90;;;;;;4991019;28;20047;-70
2021/03/16 10:03:23;;;;;;;11.18;5.18;;;6.10;99.90;;;;;;4997910;28;20133;-69
2021/03/16 10:06:00;;;;;;;9.10;4.38;;;5.80;99.90;;;;;;4991105;28;20054;-69
2021/03/16 10:08:27;;;;;;;9.95;4.80;;;5.90;99.90;;;;;;5001106;28;20054;-70
2021/03/16 10:10:55;;;;;;;11.27;4.65;;;6.00;99.90;;;;;;5003096;28;20058;-70
2021/03/16 10:13:40;;;;;;;5.53;4.05;;;6.10;99.90;;;;;;4991650;28;20046;-69
2021/03/16 10:16:11;;;;;;;8.32;4.80;;;6.40;99.90;;;;;;4981904;28;20058;-70
2021/03/16 10:18:48;;;;;;;10.65;5.68;;;6.50;99.90;;;;;;4991683;28;20050;-70
2021/03/16 10:21:26;;;;;;;9.45;5.45;;;6.40;99.90;;;;;;4990785;28;20046;-69
2021/03/16 10:23:56;;;;;;;9.18;5.43;;;6.50;99.90;;;;;;4991552;28;20058;-68
2021/03/16 10:26:23;;;;;;;8.02;4.88;;;6.70;99.90;;;;;;4993868;28;20061;-70
2021/03/16 10:28:49;;;;;;;9.50;5.78;;;6.80;99.90;;;;;;4991428;28;20428;-70
2021/03/16 10:31:25;;;;;;;11.52;5.75;;;6.80;99.90;;;;;;4990811;28;20057;-70
2021/03/16 10:33:54;;;;;;;9.38;6.47;;;7.10;99.90;;;;;;4990407;28;20149;-70
2021/03/16 10:36:22;;;;;;;8.23;5.53;;;7.10;99.90;;;;;;4993802;28;20459;-69
2021/03/16 10:38:50;;;;;;;11.40;5.20;;;7.10;99.90;;;;;;4996489;28;20130;-69
2021/03/16 10:41:18;;;;;;;7.68;5.25;;;7.10;99.90;;;;;;4999114;28;20038;-69
2021/03/16 10:43:45;;;;;;;8.77;6.43;;;7.10;99.90;;;;;;4990437;28;20065;-69
2021/03/16 10:46:11;;;;;;;9.38;5.40;;;7.00;99.90;;;;;;4991216;28;20101;-70
2021/03/16 10:48:39;;;;;;;9.63;5.75;;;6.70;99.90;;;;;;5000173;28;20053;-69
2021/03/16 10:51:06;;;;;;;11.32;5.80;;;6.60;99.90;;;;;;4995528;28;20409;-67
2021/03/16 10:53:33;;;;;;;10.10;5.20;;;6.50;99.90;;;;;;4989953;28;20054;-69
2021/03/16 10:56:04;;;;;;;8.23;4.90;;;6.50;99.90;;;;;;4992362;28;20050;-69
2021/03/16 10:58:31;;;;;;;12.75;5.47;;;6.40;99.90;;;;;;4996137;28;20049;-69
2021/03/16 11:00:58;;;;;;;6.80;4.60;;;6.40;99.90;;;;;;4991182;28;20588;-69
2021/03/16 11:03:31;;;;;;;8.10;5.68;;;6.50;99.90;;;;;;4988591;28;20046;-69
2021/03/16 11:05:58;;;;;;;8.18;4.75;;;6.50;99.90;;;;;;5000093;28;20434;-70
2021/03/16 11:08:25;;;;;;;5.38;4.88;;;6.40;99.90;;;;;;5000568;28;20050;-69
2021/03/16 11:10:52;;;;;;;5.72;5.03;;;6.50;99.90;;;;;;5000493;28;20536;-68
2021/03/16 11:13:18;;;;;;;9.70;5.68;;;6.60;99.90;;;;;;4996730;28;20493;-68
2021/03/16 11:15:46;;;;;;;7.88;5.60;;;6.70;99.90;;;;;;4981272;28;20124;-69
2021/03/16 11:18:13;;;;;;;7.13;5.18;;;6.80;99.90;;;;;;4995993;28;20112;-68
2021/03/16 11:20:40;;;;;;;10.27;5.40;;;6.90;99.90;;;;;;4992127;28;20104;-69
2021/03/16 11:23:06;;;;;;;7.57;5.00;;;6.90;99.90;;;;;;4994680;28;20274;-69
2021/03/16 11:25:32;;;;;;;7.20;5.18;;;6.90;99.90;;;;;;4993924;28;20053;-68
2021/03/16 11:28:00;;;;;;;8.02;4.90;;;6.70;99.90;;;;;;4994823;28;20493;-69
2021/03/16 11:30:30;;;;;;;7.38;5.53;;;6.80;99.90;;;;;;4996426;28;20461;-68
2021/03/16 11:32:56;;;;;;;8.65;5.07;;;6.90;99.90;;;;;;4980465;28;20482;-71
2021/03/16 11:35:23;;;;;;;7.95;5.10;;;7.00;99.90;;;;;;4998305;28;20054;-70
2021/03/16 11:37:49;;;;;;;6.35;5.20;;;7.00;99.90;;;;;;4984294;28;20149;-71
2021/03/16 11:40:16;;;;;;;7.20;5.20;;;6.80;99.90;;;;;;4992024;28;20057;-69
2021/03/16 11:42:42;;;;;;;10.65;5.63;;;6.50;99.90;;;;;;4991889;28;20054;-70
2021/03/16 11:45:09;;;;;;;10.57;5.60;;;6.60;99.90;;;;;;4993509;28;20051;-70
2021/03/16 11:47:36;;;;;;;9.27;5.70;;;6.40;99.90;;;;;;4988706;28;20390;-70
2021/03/16 11:50:05;;;;;;;7.68;5.28;;;6.30;99.90;;;;;;4993089;28;20108;-70
2021/03/16 11:52:31;;;;;;;9.27;5.65;;;6.30;99.90;;;;;;4993091;28;20077;-69
2021/03/16 11:54:58;;;;;;;10.18;5.85;;;6.30;99.90;;;;;;4993278;28;20078;-69
2021/03/16 11:57:24;;;;;;;7.90;5.82;;;6.40;99.90;;;;;;4993270;28;20051;-70
2021/03/16 11:59:51;;;;;;;5.38;4.88;;;6.60;99.90;;;;;;4993008;28;20053;-70
2021/03/16 12:02:17;;;;;;;7.50;5.10;;;6.70;99.90;;;;;;4992892;28;20046;-69
2021/03/16 12:04:44;;;;;;;13.00;5.20;;;6.70;99.90;;;;;;4993235;28;20504;-70
2021/03/16 12:07:10;;;;;;;7.63;5.10;;;6.90;99.90;;;;;;4998493;28;20064;-70
2021/03/16 12:09:46;;;;;;;9.65;5.50;;;6.90;99.90;;;;;;4992000;28;20054;-70
2021/03/16 12:12:13;;;;;;;6.18;5.00;;;7.00;99.90;;;;;;5000474;28;20057;-70
2021/03/16 12:14:40;;;;;;;6.93;5.20;;;6.80;99.90;;;;;;4993000;28;20125;-70
2021/03/16 12:17:10;;;;;;;6.20;5.18;;;6.70;99.90;;;;;;4991442;28;20042;-69
2021/03/16 12:19:39;;;;;;;7.80;5.40;;;6.80;99.90;;;;;;5003759;28;20057;-69
2021/03/16 12:22:06;;;;;;;7.82;5.45;;;6.90;99.90;;;;;;4993024;28;20474;-70
2021/03/16 12:24:32;;;;;;;9.55;5.75;;;6.90;99.90;;;;;;4991229;28;20042;-70
2021/03/16 12:26:59;;;;;;;7.63;5.78;;;6.80;99.90;;;;;;4993873;28;20053;-69
2021/03/16 12:29:26;;;;;;;9.05;5.47;;;6.70;99.90;;;;;;5002342;28;20409;-69
2021/03/16 12:31:52;;;;;;;9.82;5.50;;;6.60;99.90;;;;;;4992832;28;20050;-69
2021/03/16 12:34:32;;;;;;;8.48;5.57;;;6.50;99.90;;;;;;4993806;28;20129;-69
2021/03/16 12:36:59;;;;;;;10.02;5.65;;;6.50;99.90;;;;;;5000399;28;20407;-68
2021/03/16 12:39:28;;;;;;;12.80;5.63;;;6.50;99.90;;;;;;4997050;28;20482;-69
2021/03/16 12:41:55;;;;;;;9.93;5.43;;;6.60;99.90;;;;;;5003338;28;20057;-68
2021/03/16 12:44:21;;;;;;;13.63;6.03;;;6.60;99.90;;;;;;4996347;28;20483;-69
2021/03/16 12:46:48;;;;;;;11.80;6.00;;;6.80;99.90;;;;;;4999397;28;20050;-70
2021/03/16 12:49:14;;;;;;;9.50;5.63;;;6.70;99.90;;;;;;4993438;28;20493;-71
2021/03/16 12:51:41;;;;;;;9.43;5.63;;;6.60;99.90;;;;;;4993145;28;20492;-70
2021/03/16 12:54:07;;;;;;;10.20;5.53;;;6.40;99.90;;;;;;4990028;28;20053;-69
2021/03/16 12:56:34;;;;;;;12.55;6.05;;;6.20;99.90;;;;;;4995307;28;20050;-70
2021/03/16 12:59:02;;;;;;;10.90;5.80;;;6.20;99.90;;;;;;4992106;28;20054;-69
2021/03/16 13:01:28;;;;;;;9.35;5.10;;;6.10;99.90;;;;;;4992119;28;20042;-70